Time;durP1;ratioP1;P1;durP2;ratioP2;P2;SDS_P1;SDS_P2;PMS_P1;PMS_P2;Temp;Humidity;BMP_temperature;BMP_pressure;BME280_temperature;BME280_humidity;BME280_pressure;Samples;Min_cycle;Max_cycle;Signal;HPM_P1;HPM_P2
2024/02/20 00:00:24;;;;;;;5.07;3.37;;;;;;;8.08;100.00;99087.91;5015140;28;20207;-80
2024/02/20 00:02:51;;;;;;;6.40;3.43;;;;;;;8.05;100.00;99086.25;5014780;28;20238;-79
2024/02/20 00:05:17;;;;;;;5.37;3.60;;;;;;;8.07;100.00;99088.78;5015212;28;20220;-80
2024/02/20 00:07:44;;;;;;;4.20;3.23;;;;;;;8.05;100.00;99082.75;5014627;28;20900;-79
2024/02/20 00:10:12;;;;;;;8.43;4.13;;;;;;;8.05;100.00;99091.53;5014796;28;20242;-80
2024/02/20 00:12:38;;;;;;;5.43;3.53;;;;;;;8.10;100.00;99088.69;5014465;28;20245;-80
2024/02/20 00:15:06;;;;;;;7.60;3.73;;;;;;;8.06;100.00;99087.97;5014764;28;20218;-80
2024/02/20 00:17:33;;;;;;;7.47;3.97;;;;;;;8.08;100.00;99093.16;5014344;28;20207;-80
2024/02/20 00:20:00;;;;;;;7.00;3.63;;;;;;;8.09;100.00;99087.81;5015187;28;20242;-80
2024/02/20 00:22:27;;;;;;;6.33;4.00;;;;;;;8.08;100.00;99085.28;5014480;28;20227;-79
2024/02/20 00:24:53;;;;;;;7.73;4.10;;;;;;;8.09;100.00;99089.59;5014612;28;20216;-80
2024/02/20 00:27:21;;;;;;;5.37;3.80;;;;;;;8.08;100.00;99090.53;5014580;28;20237;-80
2024/02/20 00:29:49;;;;;;;7.83;3.97;;;;;;;8.11;100.00;99095.66;5014111;28;20226;-80
2024/02/20 00:32:16;;;;;;;6.63;4.17;;;;;;;8.14;100.00;99098.16;5014153;28;20244;-80
2024/02/20 00:34:43;;;;;;;7.47;4.10;;;;;;;8.15;100.00;99100.69;5014153;28;20250;-80
2024/02/20 00:37:10;;;;;;;6.67;4.00;;;;;;;8.15;100.00;99098.06;5014295;28;20278;-80
2024/02/20 00:39:36;;;;;;;8.27;3.77;;;;;;;8.17;100.00;99100.66;5014007;28;20320;-80
2024/02/20 00:42:03;;;;;;;8.63;4.17;;;;;;;8.19;100.00;99093.53;5014100;28;20241;-79
2024/02/20 00:44:31;;;;;;;5.37;3.83;;;;;;;8.17;100.00;99090.97;5014241;28;20216;-80
2024/02/20 00:46:58;;;;;;;6.43;3.83;;;;;;;8.22;100.00;99088.16;5014623;28;20608;-80
2024/02/20 00:49:24;;;;;;;8.87;3.90;;;;;;;8.22;100.00;99088.16;5014354;28;20208;-80
2024/02/20 00:51:51;;;;;;;7.53;4.07;;;;;;;8.20;100.00;99088.22;5013987;28;20227;-80
2024/02/20 00:54:18;;;;;;;6.47;3.93;;;;;;;8.24;100.00;99081.03;5014365;28;20223;-80
2024/02/20 00:56:44;;;;;;;7.53;4.13;;;;;;;8.23;100.00;99085.47;5013843;28;20205;-80
2024/02/20 00:59:11;;;;;;;6.03;3.03;;;;;;;8.26;100.00;99081.84;5014100;28;20614;-80
2024/02/20 01:01:39;;;;;;;5.37;3.57;;;;;;;8.30;100.00;99080.75;5013720;28;20245;-80
2024/02/20 01:04:05;;;;;;;4.63;3.30;;;;;;;8.32;100.00;99094.75;5013657;28;20220;-79
2024/02/20 01:06:32;;;;;;;6.33;3.17;;;;;;;8.27;100.00;99100.19;5013558;28;20224;-80
2024/02/20 01:08:59;;;;;;;5.70;3.20;;;;;;;8.23;100.00;99095.13;5013589;28;20237;-79
2024/02/20 01:11:26;;;;;;;6.30;2.97;;;;;;;8.21;100.00;99091.72;5013863;28;20246;-80
2024/02/20 01:13:53;;;;;;;3.87;2.47;;;;;;;8.21;100.00;99099.63;5013946;28;20213;-80
2024/02/20 01:16:20;;;;;;;4.73;3.00;;;;;;;8.17;100.00;99104.16;5013710;28;20220;-79
2024/02/20 01:18:48;;;;;;;4.13;2.90;;;;;;;8.14;100.00;99106.91;5013787;28;20260;-80
2024/02/20 01:21:14;;;;;;;5.83;3.37;;;;;;;8.11;100.00;99109.69;5013569;28;20222;-80
2024/02/20 01:23:41;;;;;;;7.43;3.60;;;;;;;8.12;100.00;99105.25;5013999;28;20214;-80
2024/02/20 01:26:07;;;;;;;4.97;3.00;;;;;;;8.09;100.00;99105.41;5013835;28;20214;-79
2024/02/20 01:28:34;;;;;;;5.33;2.93;;;;;;;8.10;100.00;99113.25;5013635;28;20235;-80
2024/02/20 01:31:00;;;;;;;4.83;2.97;;;;;;;8.12;100.00;99107.88;5013719;28;20689;-80
2024/02/20 01:33:27;;;;;;;6.00;2.77;;;;;;;8.11;100.00;99112.31;5013068;28;20840;-79
2024/02/20 01:35:55;;;;;;;6.80;3.10;;;;;;;8.07;100.00;99109.84;5013349;28;20207;-79
2024/02/20 01:38:21;;;;;;;6.10;3.30;;;;;;;8.03;100.00;99118.84;5013043;28;20205;-80
2024/02/20 01:40:48;;;;;;;7.33;3.17;;;;;;;7.98;100.00;99115.53;5013698;28;20221;-79
2024/02/20 01:43:14;;;;;;;5.83;3.03;;;;;;;7.96;100.00;99112.13;5013782;28;20244;-80
2024/02/20 01:45:41;;;;;;;4.83;3.30;;;;;;;7.84;100.00;99117.91;5013828;28;20212;-80
2024/02/20 01:48:08;;;;;;;5.97;3.73;;;;;;;7.77;100.00;99114.69;5013104;28;20230;-79
2024/02/20 01:50:36;;;;;;;7.80;3.40;;;;;;;7.69;100.00;99115.91;5013220;28;20218;-80
2024/02/20 01:53:05;;;;;;;5.10;3.33;;;;;;;7.61;100.00;99116.25;5013344;28;20257;-79
2024/02/20 01:55:33;;;;;;;5.33;3.17;;;;;;;7.60;100.00;99118.94;5012923;28;20212;-80
2024/02/20 01:58:00;;;;;;;7.60;3.83;;;;;;;7.56;100.00;99114.72;5013268;28;20205;-80
2024/02/20 02:00:27;;;;;;;9.00;4.20;;;;;;;7.51;100.00;99119.31;5013364;28;20338;-80
2024/02/20 02:02:53;;;;;;;6.20;4.00;;;;;;;7.55;100.00;99115.66;5013097;28;20240;-80
2024/02/20 02:05:20;;;;;;;7.27;3.73;;;;;;;7.53;100.00;99117.50;5013296;28;20218;-80
2024/02/20 02:07:48;;;;;;;5.93;3.77;;;;;;;7.53;100.00;99118.34;5012303;28;20239;-80
2024/02/20 02:10:17;;;;;;;8.10;4.27;;;;;;;7.54;100.00;99120.03;5013034;28;20210;-80
2024/02/20 02:12:44;;;;;;;8.03;4.00;;;;;;;7.54;100.00;99125.31;5012880;28;20637;-79
2024/02/20 02:15:10;;;;;;;8.00;4.00;;;;;;;7.54;100.00;99124.47;5013264;28;20212;-80
2024/02/20 02:17:37;;;;;;;6.70;3.90;;;;;;;7.52;100.00;99131.53;5012465;28;20206;-80
2024/02/20 02:20:06;;;;;;;6.93;3.07;;;;;;;7.53;100.00;99131.50;5013125;28;20694;-79
2024/02/20 02:22:32;;;;;;;7.87;3.60;;;;;;;7.51;100.00;99135.97;5013034;28;20230;-80
2024/02/20 02:24:59;;;;;;;5.17;3.40;;;;;;;7.52;100.00;99136.81;5014526;28;20226;-80
2024/02/20 02:27:27;;;;;;;6.43;3.27;;;;;;;7.49;100.00;99131.69;5016770;28;20225;-80
2024/02/20 02:29:54;;;;;;;4.67;3.20;;;;;;;7.48;100.00;99135.25;5017094;28;20209;-79
2024/02/20 02:32:20;;;;;;;5.33;2.60;;;;;;;7.48;100.00;99129.97;5016148;28;20250;-80
2024/02/20 02:34:48;;;;;;;7.83;3.03;;;;;;;7.45;100.00;99140.59;5016889;28;20206;-80
2024/02/20 02:37:14;;;;;;;5.07;2.60;;;;;;;7.44;100.00;99138.91;5016963;28;20210;-80
2024/02/20 02:39:40;;;;;;;5.47;2.43;;;;;;;7.39;100.00;99132.97;5016649;28;20543;-80
2024/02/20 02:42:07;;;;;;;4.47;2.27;;;;;;;7.39;100.00;99149.63;5016837;28;20235;-80
2024/02/20 02:44:36;;;;;;;6.60;2.77;;;;;;;7.42;100.00;99143.38;5017034;28;20213;-80
2024/02/20 02:47:03;;;;;;;7.20;2.47;;;;;;;7.40;100.00;99150.44;5016954;28;20301;-80
2024/02/20 02:49:30;;;;;;;3.90;2.20;;;;;;;7.41;100.00;99154.81;5017432;28;20213;-80
2024/02/20 02:51:56;;;;;;;4.90;2.50;;;;;;;7.44;100.00;99150.28;5017132;28;20225;-80
2024/02/20 02:54:25;;;;;;;2.93;2.10;;;;;;;7.42;100.00;99151.28;5017714;28;20232;-80
2024/02/20 02:56:51;;;;;;;4.07;1.87;;;;;;;7.34;100.00;99153.38;5018796;28;20210;-80
2024/02/20 02:59:18;;;;;;;3.30;2.13;;;;;;;7.34;100.00;99153.38;5017919;28;20293;-79
2024/02/20 03:01:46;;;;;;;4.73;2.53;;;;;;;7.40;100.00;99158.34;5021092;28;20233;-80
2024/02/20 03:04:12;;;;;;;5.97;2.27;;;;;;;7.40;100.00;99166.22;5021311;28;20221;-79
2024/02/20 03:06:40;;;;;;;4.10;1.90;;;;;;;7.37;100.00;99161.13;5021378;28;20216;-79
2024/02/20 03:09:12;;;;;;;6.93;2.77;;;;;;;7.37;100.00;99163.75;5019529;28;20731;-79
2024/02/20 03:11:39;;;;;;;6.60;2.33;;;;;;;7.42;100.00;99169.69;5018637;28;20257;-79
2024/02/20 03:14:05;;;;;;;5.80;2.13;;;;;;;7.46;100.00;99173.88;5016335;28;20216;-80
2024/02/20 03:16:32;;;;;;;6.53;2.60;;;;;;;7.43;100.00;99174.88;5015906;28;20210;-79
2024/02/20 03:19:00;;;;;;;4.30;2.10;;;;;;;7.46;100.00;99187.03;5015470;28;20212;-79
2024/02/20 03:21:26;;;;;;;6.50;2.17;;;;;;;7.43;100.00;99181.91;5015547;28;20716;-79
2024/02/20 03:23:52;;;;;;;4.83;2.00;;;;;;;7.44;100.00;99186.25;5015725;28;20217;-79
2024/02/20 03:26:19;;;;;;;5.80;2.37;;;;;;;7.42;100.00;99183.66;5015462;28;20214;-79
2024/02/20 03:28:46;;;;;;;4.03;1.93;;;;;;;7.43;100.00;99195.06;5015357;28;20234;-79
2024/02/20 03:31:13;;;;;;;4.63;2.30;;;;;;;7.41;100.00;99194.28;5014781;28;20731;-79
2024/02/20 03:33:40;;;;;;;3.33;1.93;;;;;;;7.43;100.00;99190.66;5015099;28;20221;-79
2024/02/20 03:36:09;;;;;;;4.67;2.00;;;;;;;7.50;100.00;99197.41;5014836;28;20228;-79
2024/02/20 03:38:36;;;;;;;6.17;2.10;;;;;;;7.53;100.00;99201.69;5015339;28;20236;-79
2024/02/20 03:41:02;;;;;;;4.63;1.93;;;;;;;7.48;100.00;99209.72;5015098;28;20205;-79
2024/02/20 03:43:29;;;;;;;6.17;2.23;;;;;;;7.49;100.00;99200.06;5015193;28;20214;-79
2024/02/20 03:45:55;;;;;;;5.57;2.37;;;;;;;7.52;100.00;99207.84;5015212;28;20213;-79
2024/02/20 03:48:22;;;;;;;7.03;2.40;;;;;;;7.50;100.00;99213.19;5014925;28;20240;-79
2024/02/20 03:50:48;;;;;;;6.77;2.43;;;;;;;7.44;100.00;99212.53;5015646;28;20205;-79
2024/02/20 03:53:18;;;;;;;6.33;2.47;;;;;;;7.41;100.00;99212.69;5015578;28;20667;-80
2024/02/20 03:55:45;;;;;;;7.40;3.13;;;;;;;7.43;100.00;99224.00;5015117;28;20217;-79
2024/02/20 03:58:11;;;;;;;4.97;2.43;;;;;;;7.50;100.00;99221.06;5014868;28;20205;-79
2024/02/20 04:00:38;;;;;;;7.73;2.13;;;;;;;7.44;100.00;99223.06;5014940;28;20210;-79
2024/02/20 04:03:05;;;;;;;4.80;2.50;;;;;;;7.41;100.00;99223.22;5015054;28;20609;-79
2024/02/20 04:05:33;;;;;;;4.73;2.60;;;;;;;7.43;100.00;99231.88;5014636;28;20700;-79
2024/02/20 04:08:00;;;;;;;6.33;2.40;;;;;;;7.45;100.00;99232.66;5014513;28;20229;-79
2024/02/20 04:10:28;;;;;;;5.40;2.30;;;;;;;7.43;100.00;99237.16;5014797;28;20216;-79
2024/02/20 04:12:55;;;;;;;4.80;2.50;;;;;;;7.41;100.00;99244.25;5014331;28;20326;-79
2024/02/20 04:15:21;;;;;;;5.47;2.43;;;;;;;7.41;100.00;99249.50;5014650;28;20206;-80
2024/02/20 04:17:48;;;;;;;4.80;2.33;;;;;;;7.36;100.00;99254.09;5013904;28;20232;-79
2024/02/20 04:20:15;;;;;;;5.23;2.53;;;;;;;7.33;100.00;99247.16;5013970;28;20701;-79
2024/02/20 04:22:41;;;;;;;6.50;2.50;;;;;;;7.30;100.00;99247.25;5014063;28;20225;-79
2024/02/20 04:25:08;;;;;;;6.30;2.60;;;;;;;7.27;100.00;99251.78;5014293;28;20210;-79
2024/02/20 04:27:38;;;;;;;4.60;2.07;;;;;;;7.25;100.00;99258.88;5014028;28;20403;-79
2024/02/20 04:30:07;;;;;;;5.00;1.90;;;;;;;7.19;100.00;99259.13;5014309;28;20244;-80
2024/02/20 04:32:33;;;;;;;6.77;2.00;;;;;;;7.14;100.00;99253.19;5013992;28;20779;-79
2024/02/20 04:35:00;;;;;;;6.77;1.70;;;;;;;7.04;100.00;99253.59;5014358;28;20225;-80
2024/02/20 04:37:26;;;;;;;9.97;1.87;;;;;;;6.97;100.00;99258.19;5014109;28;20229;-79
2024/02/20 04:39:53;;;;;;;6.40;2.27;;;;;;;6.94;100.00;99260.97;5013551;28;20219;-80
2024/02/20 04:42:21;;;;;;;5.80;2.07;;;;;;;6.92;100.00;99260.16;5013846;28;20715;-79
2024/02/20 04:44:49;;;;;;;5.30;2.40;;;;;;;6.87;100.00;99267.34;5013585;28;20252;-80
2024/02/20 04:47:15;;;;;;;5.70;1.93;;;;;;;6.93;100.00;99272.38;5013413;28;20216;-79
2024/02/20 04:49:42;;;;;;;8.43;2.97;;;;;;;6.98;100.00;99266.97;5013248;28;20339;-79
2024/02/20 04:52:09;;;;;;;7.60;2.30;;;;;;;6.99;100.00;99272.16;5013998;28;20565;-79
2024/02/20 04:54:35;;;;;;;3.60;1.77;;;;;;;7.03;100.00;99273.75;5013924;28;20214;-79
2024/02/20 04:57:02;;;;;;;6.97;2.13;;;;;;;7.06;100.00;99276.28;5014077;28;20223;-79
2024/02/20 04:59:28;;;;;;;6.07;2.17;;;;;;;7.09;100.00;99268.25;5014002;28;20213;-79
2024/02/20 05:01:56;;;;;;;8.17;2.27;;;;;;;7.11;100.00;99271.72;5014015;28;20238;-79
2024/02/20 05:04:24;;;;;;;7.07;2.10;;;;;;;7.11;100.00;99276.09;5013765;28;20628;-79
2024/02/20 05:06:50;;;;;;;7.17;1.73;;;;;;;7.12;100.00;99278.69;5013904;28;20217;-79
2024/02/20 05:09:17;;;;;;;10.77;2.30;;;;;;;7.11;100.00;99276.97;5013876;28;20260;-79
2024/02/20 05:11:43;;;;;;;6.67;2.33;;;;;;;7.11;100.00;99271.72;5013739;28;20232;-79
2024/02/20 05:14:09;;;;;;;7.57;2.37;;;;;;;7.11;100.00;99276.97;5013929;28;20209;-79
2024/02/20 05:16:36;;;;;;;6.33;1.90;;;;;;;7.10;100.00;99275.25;5013713;28;20232;-79
2024/02/20 05:19:04;;;;;;;6.30;2.17;;;;;;;7.10;100.00;99275.25;5013744;28;20202;-79
2024/02/20 05:21:30;;;;;;;7.33;1.93;;;;;;;7.08;100.00;99281.47;5012838;28;20234;-79
2024/02/20 05:23:57;;;;;;;7.10;1.80;;;;;;;7.11;100.00;99279.59;5013619;28;20585;-79
2024/02/20 05:26:23;;;;;;;6.13;1.90;;;;;;;7.10;100.00;99283.16;5013098;28;20237;-79
2024/02/20 05:28:50;;;;;;;9.70;2.13;;;;;;;7.07;100.00;99277.13;5013008;28;20235;-79
2024/02/20 05:31:28;;;;;;;6.13;2.00;;;;;;;7.07;100.00;99279.75;5012425;28;20211;-79
2024/02/20 05:33:54;;;;;;;5.60;1.73;;;;;;;7.06;100.00;99286.78;5012964;28;20214;-79
2024/02/20 05:36:22;;;;;;;6.43;1.70;;;;;;;7.06;100.00;99284.16;5013222;28;20208;-79
2024/02/20 05:38:49;;;;;;;8.50;1.80;;;;;;;7.07;100.00;99287.63;5013251;28;20201;-79
2024/02/20 05:41:15;;;;;;;6.10;1.97;;;;;;;7.08;100.00;99287.59;5012951;28;20217;-79
2024/02/20 05:43:42;;;;;;;7.67;1.77;;;;;;;7.10;100.00;99283.16;5013172;28;20736;-79
2024/02/20 05:46:08;;;;;;;8.07;2.10;;;;;;;7.08;100.00;99292.00;5012985;28;20217;-79
2024/02/20 05:48:36;;;;;;;3.17;1.60;;;;;;;7.10;100.00;99291.03;5012592;28;20233;-79
2024/02/20 05:51:03;;;;;;;5.20;2.30;;;;;;;7.09;100.00;99293.72;5013140;28;20703;-79
2024/02/20 05:53:30;;;;;;;6.63;2.03;;;;;;;7.11;100.00;99287.47;5012958;28;20221;-79
2024/02/20 05:55:57;;;;;;;4.83;1.80;;;;;;;7.07;100.00;99299.00;5013054;28;20219;-79
2024/02/20 05:58:23;;;;;;;10.73;2.30;;;;;;;7.06;100.00;99292.03;5012862;28;20688;-79
2024/02/20 06:00:50;;;;;;;4.10;1.80;;;;;;;7.02;100.00;99297.47;5017285;28;20215;-78
2024/02/20 06:03:16;;;;;;;7.53;2.40;;;;;;;7.04;100.00;99300.91;5017097;28;20245;-79
2024/02/20 06:05:43;;;;;;;8.77;2.60;;;;;;;6.99;100.00;99303.69;5017255;28;20213;-79
2024/02/20 06:08:09;;;;;;;5.87;1.80;;;;;;;6.92;100.00;99307.47;5017106;28;20209;-79
2024/02/20 06:10:37;;;;;;;5.83;2.50;;;;;;;6.92;100.00;99314.47;5017133;28;20216;-79
2024/02/20 06:13:04;;;;;;;4.43;2.17;;;;;;;6.88;100.00;99311.13;5016858;28;20552;-79
2024/02/20 06:15:30;;;;;;;8.17;2.10;;;;;;;6.85;100.00;99321.72;5016788;28;20215;-79
2024/02/20 06:17:57;;;;;;;8.13;2.37;;;;;;;6.81;100.00;99321.88;5016610;28;20222;-79
2024/02/20 06:20:23;;;;;;;6.50;1.57;;;;;;;6.81;100.00;99325.38;5016644;28;20210;-79
2024/02/20 06:22:50;;;;;;;5.83;1.73;;;;;;;6.74;100.00;99329.16;5016496;28;20234;-79
2024/02/20 06:25:16;;;;;;;5.97;1.73;;;;;;;6.74;100.00;99334.41;5016705;28;20204;-79
2024/02/20 06:27:45;;;;;;;7.10;1.83;;;;;;;6.73;100.00;99331.81;5016393;28;20671;-79
2024/02/20 06:30:13;;;;;;;6.63;2.10;;;;;;;6.73;100.00;99337.06;5016448;28;20244;-78
2024/02/20 06:32:39;;;;;;;5.50;1.63;;;;;;;6.72;100.00;99338.81;5016230;28;20249;-78
2024/02/20 06:35:08;;;;;;;3.53;1.47;;;;;;;6.71;100.00;99346.78;5016947;28;20259;-79
2024/02/20 06:37:34;;;;;;;6.97;2.40;;;;;;;6.68;100.00;99350.38;5016470;28;20221;-78
2024/02/20 06:40:01;;;;;;;5.90;2.10;;;;;;;6.66;100.00;99341.66;5016623;28;20214;-79
2024/02/20 06:42:29;;;;;;;5.30;1.80;;;;;;;6.68;100.00;99350.38;5016663;28;20233;-78
2024/02/20 06:44:57;;;;;;;7.90;2.90;;;;;;;6.69;100.00;99351.22;5016212;28;20668;-79
2024/02/20 06:47:23;;;;;;;8.07;2.03;;;;;;;6.74;100.00;99350.16;5016915;28;20213;-78
2024/02/20 06:49:50;;;;;;;5.60;1.90;;;;;;;6.71;100.00;99360.75;5016080;28;20715;-78
2024/02/20 06:52:16;;;;;;;3.90;1.77;;;;;;;6.72;100.00;99361.63;5016271;28;20720;-78
2024/02/20 06:54:43;;;;;;;9.87;2.67;;;;;;;6.73;100.00;99369.44;5016416;28;20223;-78
2024/02/20 06:57:09;;;;;;;5.50;1.80;;;;;;;6.76;100.00;99369.34;5015922;28;20585;-79
2024/02/20 06:59:36;;;;;;;5.03;2.13;;;;;;;6.78;100.00;99377.19;5015939;28;20701;-79
2024/02/20 07:02:04;;;;;;;4.30;2.20;;;;;;;6.79;100.00;99385.00;5016035;28;20236;-79
2024/02/20 07:04:30;;;;;;;10.10;2.50;;;;;;;6.82;100.00;99379.66;5016121;28;20213;-79
2024/02/20 07:06:57;;;;;;;5.77;1.87;;;;;;;6.84;100.00;99376.97;5017209;28;20210;-78
2024/02/20 07:09:23;;;;;;;8.00;1.97;;;;;;;6.85;100.00;99376.06;5014869;28;20233;-78
2024/02/20 07:11:50;;;;;;;8.37;2.00;;;;;;;6.89;100.00;99383.78;5014538;28;20244;-78
2024/02/20 07:14:16;;;;;;;6.27;2.37;;;;;;;6.88;100.00;99379.44;5014631;28;20209;-76
2024/02/20 07:16:44;;;;;;;11.80;2.60;;;;;;;6.92;100.00;99388.06;5014128;28;20214;-76
2024/02/20 07:19:12;;;;;;;4.97;2.10;;;;;;;6.98;100.00;99395.75;5014187;28;20248;-78
2024/02/20 07:21:38;;;;;;;8.53;2.43;;;;;;;6.99;100.00;99387.81;5015369;28;20236;-84
2024/02/20 07:24:06;;;;;;;6.27;1.80;;;;;;;7.04;100.00;99391.16;5015464;28;20215;-79
2024/02/20 07:26:32;;;;;;;4.20;1.93;;;;;;;7.10;100.00;99401.44;5014832;28;20218;-78
2024/02/20 07:28:59;;;;;;;7.80;1.90;;;;;;;7.12;100.00;99394.34;5015488;28;20232;-78
2024/02/20 07:31:27;;;;;;;6.07;2.17;;;;;;;7.16;100.00;99395.97;5015057;28;20238;-78
2024/02/20 07:33:54;;;;;;;6.73;1.97;;;;;;;7.20;100.00;99402.81;5015471;28;20211;-79
2024/02/20 07:36:22;;;;;;;5.07;2.03;;;;;;;7.24;100.00;99399.16;5014688;28;20207;-78
2024/02/20 07:38:49;;;;;;;7.73;2.00;;;;;;;7.18;100.00;99394.13;5014312;28;20240;-78
2024/02/20 07:41:15;;;;;;;8.87;2.27;;;;;;;7.13;100.00;99401.31;5014128;28;20214;-78
2024/02/20 07:43:42;;;;;;;7.47;2.17;;;;;;;7.08;100.00;99405.03;5014533;28;20235;-78
2024/02/20 07:46:09;;;;;;;7.53;2.77;;;;;;;7.00;100.00;99410.56;5014362;28;20216;-78
2024/02/20 07:48:35;;;;;;;7.90;2.00;;;;;;;6.95;100.00;99412.47;5013627;28;20309;-78
2024/02/20 07:51:05;;;;;;;6.53;2.30;;;;;;;6.97;100.00;99404.53;5014607;28;20439;-78
2024/02/20 07:53:33;;;;;;;5.63;2.70;;;;;;;6.91;100.00;99410.84;5015327;28;20210;-79
2024/02/20 07:55:59;;;;;;;5.30;2.07;;;;;;;6.88;100.00;99418.84;5015502;28;20209;-78
2024/02/20 07:58:26;;;;;;;6.33;2.10;;;;;;;6.85;100.00;99421.56;5012136;28;20220;-78
2024/02/20 08:00:54;;;;;;;8.30;2.30;;;;;;;6.78;100.00;99425.31;5013035;28;20219;-78
2024/02/20 08:03:23;;;;;;;9.43;2.50;;;;;;;6.73;100.00;99421.16;5012567;28;20609;-78
2024/02/20 08:05:50;;;;;;;7.17;2.40;;;;;;;6.68;100.00;99425.69;5012530;28;20218;-78
2024/02/20 08:08:17;;;;;;;7.43;2.60;;;;;;;6.63;100.00;99433.72;5012261;28;20213;-78
2024/02/20 08:10:45;;;;;;;8.17;2.37;;;;;;;6.63;100.00;99431.09;5013060;28;20603;-78
2024/02/20 08:13:12;;;;;;;7.13;2.13;;;;;;;6.60;100.00;99441.69;5013967;28;20232;-78
2024/02/20 08:15:38;;;;;;;6.77;2.40;;;;;;;6.62;100.00;99445.16;5014320;28;20661;-79
2024/02/20 08:18:06;;;;;;;12.27;2.77;;;;;;;6.75;100.00;99451.72;5014187;28;20213;-79
2024/02/20 08:20:33;;;;;;;6.80;2.70;;;;;;;6.82;100.00;99447.97;5014496;28;20280;-79
2024/02/20 08:22:59;;;;;;;4.70;2.43;;;;;;;6.97;100.00;99444.81;5013328;28;20591;-79
2024/02/20 08:25:26;;;;;;;6.77;3.00;;;;;;;7.07;100.00;99447.97;5014441;28;20216;-79
2024/02/20 08:27:53;;;;;;;9.03;2.90;;;;;;;7.20;100.00;99444.03;5014079;28;20210;-79
2024/02/20 08:30:23;;;;;;;9.50;2.97;;;;;;;7.37;100.00;99445.16;5014383;28;20236;-78
2024/02/20 08:32:49;;;;;;;9.10;3.10;;;;;;;7.50;100.00;99428.00;5013814;28;20706;-79
2024/02/20 08:35:17;;;;;;;6.03;2.50;;;;;;;7.57;100.00;99429.50;5014053;28;20213;-79
2024/02/20 08:37:43;;;;;;;12.05;3.17;;;;;;;7.70;100.00;99425.50;5014043;28;20506;-79
2024/02/20 08:40:11;;;;;;;8.00;2.20;;;;;;;7.72;100.00;99423.69;5011185;28;20216;-81
2024/02/20 08:42:37;;;;;;;8.83;2.87;;;;;;;7.81;100.00;99420.69;5009348;28;20762;-79
2024/02/20 08:45:06;;;;;;;6.43;2.73;;;;;;;7.83;100.00;99426.78;5013458;28;20394;-79
2024/02/20 08:47:33;;;;;;;9.03;2.57;;;;;;;7.94;100.00;99424.56;5013520;28;20213;-79
2024/02/20 08:49:59;;;;;;;5.13;2.30;;;;;;;8.09;100.00;99424.00;5012872;28;20226;-79
2024/02/20 08:52:26;;;;;;;8.30;3.07;;;;;;;8.25;100.00;99425.13;5012728;28;20231;-80
2024/02/20 08:54:52;;;;;;;7.47;2.53;;;;;;;8.47;100.00;99426.00;5014109;28;20626;-79
2024/02/20 08:57:19;;;;;;;7.43;2.70;;;;;;;8.65;100.00;99414.72;5010685;28;20220;-77
2024/02/20 08:59:47;;;;;;;10.77;2.20;;;;;;;8.69;100.00;99403.97;5010674;28;20202;-77
2024/02/20 09:02:16;;;;;;;9.00;2.37;;;;;;;8.66;100.00;99400.59;5008483;28;20243;-77
2024/02/20 09:04:44;;;;;;;11.93;2.83;;;;;;;8.62;100.00;99399.03;5010809;28;20223;-77
2024/02/20 09:07:11;;;;;;;5.10;2.27;;;;;;;8.58;100.00;99407.97;5010559;28;20211;-77
2024/02/20 09:09:38;;;;;;;10.13;2.47;;;;;;;8.47;100.00;99410.19;5010475;28;20231;-77
2024/02/20 09:12:04;;;;;;;4.70;2.27;;;;;;;8.51;100.00;99425.81;5011305;28;20319;-79
2024/02/20 09:14:31;;;;;;;8.50;2.67;;;;;;;8.61;100.00;99428.91;5012230;28;20237;-79
2024/02/20 09:16:57;;;;;;;6.53;2.50;;;;;;;8.68;100.00;99438.28;5012198;28;20210;-79
2024/02/20 09:19:25;;;;;;;12.33;3.00;;;;;;;8.81;100.00;99437.72;5015294;28;20223;-79
2024/02/20 09:21:51;;;;;;;9.00;3.23;;;;;;;9.05;100.00;99441.13;5016201;28;20241;-81
2024/02/20 09:24:19;;;;;;;11.87;2.50;;;;;;;9.13;100.00;99425.84;5013199;28;20219;-80
2024/02/20 09:26:45;;;;;;;10.77;3.40;;;;;;;8.94;100.00;99430.19;5012075;28;20214;-82
2024/02/20 09:29:12;;;;;;;11.93;3.20;;;;;;;8.84;100.00;99423.56;5011532;28;20247;-81
2024/02/20 09:31:39;;;;;;;12.43;2.80;;;;;;;8.76;100.00;99433.59;5011390;28;20604;-81
2024/02/20 09:34:05;;;;;;;7.60;2.80;;;;;;;8.80;100.00;99440.41;5011741;28;20206;-81
2024/02/20 09:36:33;;;;;;;7.93;3.00;;;;;;;8.75;100.00;99442.41;5012810;28;20210;-78
2024/02/20 09:39:03;;;;;;;8.13;2.63;;;;;;;9.05;100.00;99436.69;5010640;28;20211;-78
2024/02/20 09:41:32;;;;;;;6.63;2.40;;;;;;;9.20;100.00;99433.44;5012283;28;20231;-77
2024/02/20 09:43:59;;;;;;;7.60;2.87;;;;;;;9.16;100.00;99428.31;5012502;28;20658;-81
2024/02/20 09:46:29;;;;;;;6.90;3.17;;;;;;;9.09;100.00;99422.47;4996316;28;20213;-80
2024/02/20 09:48:56;;;;;;;5.60;2.30;;;;;;;9.08;100.00;99438.34;5011305;28;20206;-78
2024/02/20 09:51:26;;;;;;;5.50;2.33;;;;;;;9.17;100.00;99445.91;5011657;28;20242;-79
2024/02/20 09:53:57;;;;;;;10.37;2.90;;;;;;;9.20;99.07;99425.50;5013392;28;20752;-79
2024/02/20 09:56:24;;;;;;;6.07;3.03;;;;;;;9.34;99.96;99436.31;5012997;28;20239;-80
2024/02/20 09:58:51;;;;;;;7.60;2.33;;;;;;;9.33;100.00;99436.38;5012488;28;20212;-79
2024/02/20 10:01:18;;;;;;;6.43;2.70;;;;;;;9.22;98.01;99422.78;5011567;28;20214;-79
2024/02/20 10:03:48;;;;;;;9.00;2.57;;;;;;;9.15;98.31;99421.34;5010212;28;20219;-81
2024/02/20 10:06:15;;;;;;;7.10;2.80;;;;;;;9.04;98.64;99428.84;5012063;28;20223;-80
2024/02/20 10:08:42;;;;;;;9.23;2.93;;;;;;;9.00;98.02;99427.28;5011747;28;20289;-79
2024/02/20 10:11:10;;;;;;;7.70;3.00;;;;;;;8.99;97.83;99422.94;5011114;28;20228;-77
2024/02/20 10:13:43;;;;;;;8.63;2.60;;;;;;;8.97;99.69;99427.41;5014274;28;20224;-80
2024/02/20 10:16:13;;;;;;;10.30;2.87;;;;;;;9.04;99.27;99428.84;5017313;28;20231;-80
2024/02/20 10:18:39;;;;;;;7.10;2.57;;;;;;;9.16;96.37;99412.50;5016673;28;20303;-80
2024/02/20 10:21:07;;;;;;;8.93;2.50;;;;;;;9.18;97.46;99423.84;5016770;28;20655;-80
2024/02/20 10:23:34;;;;;;;7.80;3.00;;;;;;;9.31;97.49;99422.41;5017641;28;20216;-80
2024/02/20 10:26:01;;;;;;;9.17;2.80;;;;;;;9.32;97.90;99432.03;5016562;28;20216;-80
2024/02/20 10:28:29;;;;;;;8.70;2.93;;;;;;;9.38;96.48;99427.34;5017586;28;20215;-80
2024/02/20 10:30:57;;;;;;;10.73;2.80;;;;;;;9.31;90.75;99399.50;5014738;28;20240;-78
2024/02/20 10:33:24;;;;;;;9.37;2.90;;;;;;;9.36;93.28;99405.44;5013643;28;20216;-79
2024/02/20 10:36:01;;;;;;;9.77;2.77;;;;;;;9.40;93.63;99412.28;5013535;28;20217;-80
2024/02/20 10:38:28;;;;;;;9.83;3.00;;;;;;;9.38;93.84;99408.88;5014027;28;20215;-80
2024/02/20 10:40:55;;;;;;;8.93;3.10;;;;;;;9.28;93.64;99414.59;5014528;28;20205;-80
2024/02/20 10:43:23;;;;;;;11.20;3.27;;;;;;;9.23;94.98;99428.00;4996357;28;20228;-80
2024/02/20 10:45:51;;;;;;;9.77;3.50;;;;;;;9.17;95.04;99416.88;5015528;28;20205;-85
2024/02/20 10:48:25;;;;;;;6.87;2.70;;;;;;;9.14;96.15;99430.19;5018950;28;20678;-78
2024/02/20 10:50:53;;;;;;;7.20;3.10;;;;;;;9.17;98.47;99436.19;5018524;28;20271;-81
2024/02/20 10:53:21;;;;;;;8.50;2.67;;;;;;;9.12;98.91;99443.44;5021353;28;20228;-78
2024/02/20 10:55:52;;;;;;;8.73;2.53;;;;;;;9.11;93.80;99409.22;5016492;28;20213;-77
2024/02/20 10:58:21;;;;;;;7.97;2.30;;;;;;;9.12;94.39;99416.22;5017576;28;20286;-78
2024/02/20 11:00:49;;;;;;;7.33;2.43;;;;;;;9.18;94.60;99415.94;5019510;28;20208;-78
2024/02/20 11:03:18;;;;;;;9.50;2.60;;;;;;;9.18;92.46;99394.84;5016512;28;20286;-77
2024/02/20 11:05:45;;;;;;;10.17;2.73;;;;;;;9.32;92.64;99388.03;5015078;28;20215;-77
2024/02/20 11:08:12;;;;;;;5.77;2.43;;;;;;;9.46;87.24;99353.97;5014790;28;20220;-77
2024/02/20 11:10:38;;;;;;;9.40;2.53;;;;;;;9.56;87.51;99363.19;5014865;28;20235;-77
2024/02/20 11:13:14;;;;;;;5.00;1.83;;;;;;;9.58;88.59;99366.59;5015032;28;20232;-77
2024/02/20 11:15:41;;;;;;;8.53;2.70;;;;;;;9.58;87.46;99363.09;5016048;28;20212;-78
2024/02/20 11:18:15;;;;;;;6.03;2.20;;;;;;;9.45;87.83;99361.94;5017427;28;20223;-77
2024/02/20 11:20:44;;;;;;;7.03;2.60;;;;;;;9.51;86.90;99351.97;5015399;28;20289;-77
2024/02/20 11:23:10;;;;;;;12.13;2.50;;;;;;;9.27;86.21;99353.09;5015530;28;20346;-77
2024/02/20 11:25:39;;;;;;;10.40;2.67;;;;;;;9.24;87.22;99350.56;5015518;28;20223;-78
2024/02/20 11:28:12;;;;;;;6.07;2.30;;;;;;;9.21;89.93;99381.50;5014546;28;20571;-77
2024/02/20 11:30:39;;;;;;;7.70;2.67;;;;;;;9.31;89.01;99369.63;5014505;28;20234;-78
2024/02/20 11:33:14;;;;;;;7.43;2.50;;;;;;;9.38;88.58;99365.78;5014779;28;20566;-78